Time;durP1;ratioP1;P1;durP2;ratioP2;P2;SDS_P1;SDS_P2;PMS_P1;PMS_P2;Temp;Humidity;BMP_temperature;BMP_pressure;BME280_temperature;BME280_humidity;BME280_pressure;Samples;Min_cycle;Max_cycle;Signal;HPM_P1;HPM_P2
2022/01/12 00:01:40;;;;;;;30.97;19.27;;;-1.20;99.90;;;;;;5016275;28;20056;-80
2022/01/12 00:04:07;;;;;;;32.43;20.10;;;-1.20;99.90;;;;;;5016011;28;20535;-80
2022/01/12 00:06:33;;;;;;;35.50;21.40;;;-1.20;99.90;;;;;;5029329;28;20470;-82
2022/01/12 00:09:05;;;;;;;28.17;17.50;;;-1.30;99.90;;;;;;5013468;28;20081;-82
2022/01/12 00:11:31;;;;;;;26.67;17.57;;;-1.20;99.90;;;;;;5013134;28;20045;-83
2022/01/12 00:13:57;;;;;;;29.27;17.73;;;-0.90;99.90;;;;;;5013188;28;20463;-82
2022/01/12 00:16:23;;;;;;;34.67;19.93;;;-0.70;99.90;;;;;;5015494;28;20030;-83
2022/01/12 00:18:49;;;;;;;32.33;18.27;;;-0.80;99.90;;;;;;5034808;28;20040;-82
2022/01/12 00:21:15;;;;;;;30.30;18.10;;;-0.90;99.90;;;;;;5012986;28;20029;-82
2022/01/12 00:23:41;;;;;;;40.57;22.20;;;-0.90;99.90;;;;;;5013090;28;20053;-83
2022/01/12 00:26:11;;;;;;;36.87;21.20;;;-0.90;99.90;;;;;;5013185;28;20076;-83
2022/01/12 00:34:09;;;;;;;29.17;18.50;;;-1.00;99.90;;;;;;5012912;28;20072;-83
2022/01/12 00:36:35;;;;;;;34.83;21.23;;;-1.00;99.90;;;;;;5012850;28;20803;-83
2022/01/12 00:39:04;;;;;;;42.43;26.17;;;-1.10;99.90;;;;;;5031978;28;20095;-83
2022/01/12 00:41:29;;;;;;;28.67;19.27;;;-1.20;99.90;;;;;;5032847;28;20060;-83
2022/01/12 00:43:59;;;;;;;28.33;18.43;;;-1.20;99.90;;;;;;5032571;28;20057;-83
2022/01/12 00:46:27;;;;;;;30.10;19.43;;;-1.20;99.90;;;;;;5032349;28;20492;-82
2022/01/12 00:48:58;;;;;;;27.83;17.47;;;-1.30;99.90;;;;;;5032549;28;20068;-82
2022/01/12 00:51:30;;;;;;;26.83;17.93;;;-1.30;99.90;;;;;;5032183;28;20033;-82
2022/01/12 00:53:56;;;;;;;31.63;19.30;;;-1.40;99.90;;;;;;5030855;28;20041;-82
2022/01/12 00:56:23;;;;;;;30.30;19.23;;;-1.50;99.90;;;;;;5030866;28;20033;-82
2022/01/12 00:58:49;;;;;;;29.33;18.67;;;-1.60;99.90;;;;;;5032268;28;20034;-82
2022/01/12 01:01:16;;;;;;;28.60;17.77;;;-1.60;99.90;;;;;;5032098;28;20100;-82
2022/01/12 01:03:42;;;;;;;29.93;17.47;;;-1.60;99.90;;;;;;5031968;28;20025;-82
2022/01/12 01:06:09;;;;;;;29.40;17.93;;;-1.60;99.90;;;;;;5030559;28;20597;-82
2022/01/12 01:08:35;;;;;;;28.97;17.27;;;-1.60;99.90;;;;;;5032086;28;20042;-82
2022/01/12 01:11:00;;;;;;;29.83;18.67;;;-1.60;99.90;;;;;;5032025;28;20057;-82
2022/01/12 01:13:34;;;;;;;30.00;18.40;;;-1.70;99.90;;;;;;5031864;28;20113;-82
2022/01/12 01:16:14;;;;;;;33.90;19.97;;;-1.80;99.90;;;;;;5028891;28;20026;-82
2022/01/12 01:26:57;;;;;;;35.37;20.40;;;-2.10;99.90;;;;;;5031763;28;20083;-82
2022/01/12 01:29:23;;;;;;;36.23;22.13;;;-2.20;99.90;;;;;;5031338;28;20044;-82
2022/01/12 01:31:50;;;;;;;37.67;21.97;;;-2.20;99.90;;;;;;5011823;28;20113;-82
2022/01/12 01:34:16;;;;;;;38.57;22.73;;;-2.20;99.90;;;;;;5011564;28;20065;-82
2022/01/12 01:36:48;;;;;;;38.93;22.77;;;-2.30;99.90;;;;;;5012991;28;20069;-82
2022/01/12 01:39:17;;;;;;;36.57;22.03;;;-2.30;99.90;;;;;;5031453;28;20127;-82
2022/01/12 01:41:48;;;;;;;34.33;21.10;;;-2.40;99.90;;;;;;5031561;28;20029;-82
2022/01/12 01:54:46;;;;;;;35.37;21.03;;;-2.40;99.90;;;;;;5031273;28;19912;-81
2022/01/12 01:57:12;;;;;;;32.80;20.60;;;-2.50;99.90;;;;;;5031049;28;20786;-82
2022/01/12 01:59:38;;;;;;;34.57;20.87;;;-2.50;99.90;;;;;;5030921;28;20394;-82
2022/01/12 02:02:03;;;;;;;34.67;20.73;;;-2.50;99.90;;;;;;5030752;28;20091;-82
2022/01/12 02:04:29;;;;;;;41.47;23.27;;;-2.50;99.90;;;;;;5029907;28;20045;-82
2022/01/12 02:06:58;;;;;;;39.37;22.43;;;-2.60;99.90;;;;;;5030804;28;20049;-82
2022/01/12 02:09:24;;;;;;;37.60;22.40;;;-2.60;99.90;;;;;;5029390;28;20087;-82
2022/01/12 02:11:53;;;;;;;36.53;21.23;;;-2.60;99.90;;;;;;5030695;28;20034;-82
2022/01/12 02:14:20;;;;;;;34.83;19.90;;;-2.60;99.90;;;;;;5029418;28;20018;-82
2022/01/12 02:16:54;;;;;;;38.33;21.53;;;-2.50;99.90;;;;;;5024413;28;20045;-82
2022/01/12 02:35:53;;;;;;;34.83;20.17;;;-2.90;99.90;;;;;;5029990;28;20044;-82
2022/01/12 02:41:05;;;;;;;32.97;20.13;;;-2.70;99.90;;;;;;5030179;28;20075;-83
2022/01/12 02:53:43;;;;;;;39.57;21.17;;;-2.20;99.90;;;;;;5029913;28;20482;-82
2022/01/12 02:56:11;;;;;;;33.73;19.80;;;-2.20;99.90;;;;;;5030163;28;20104;-82
2022/01/12 02:58:38;;;;;;;36.17;20.60;;;-2.10;99.90;;;;;;5029844;28;20029;-82
2022/01/12 03:03:43;;;;;;;36.90;20.70;;;-2.10;99.90;;;;;;5030007;28;20037;-82
2022/01/12 03:06:10;;;;;;;34.90;20.87;;;-2.00;99.90;;;;;;5030115;28;20018;-82
2022/01/12 03:08:38;;;;;;;35.87;21.17;;;-2.00;99.90;;;;;;5029889;28;20323;-82
2022/01/12 03:11:09;;;;;;;37.47;21.27;;;-2.00;99.90;;;;;;5030060;28;20026;-82
2022/01/12 03:13:35;;;;;;;37.93;20.97;;;-2.00;99.90;;;;;;5029854;28;20021;-82
2022/01/12 03:16:08;;;;;;;35.87;20.93;;;-1.90;99.90;;;;;;5030755;28;20490;-82
2022/01/12 03:18:33;;;;;;;35.53;21.07;;;-1.80;99.90;;;;;;5030705;28;20029;-82
2022/01/12 03:20:59;;;;;;;39.67;21.10;;;-1.80;99.90;;;;;;5033709;28;20025;-82
2022/01/12 03:23:24;;;;;;;41.73;23.13;;;-1.80;99.90;;;;;;5032295;28;20045;-82
2022/01/12 03:25:50;;;;;;;44.57;25.17;;;-1.80;99.90;;;;;;5032431;28;20029;-82
2022/01/12 03:28:15;;;;;;;43.50;24.97;;;-1.90;99.90;;;;;;5033790;28;20026;-81
2022/01/12 03:30:51;;;;;;;43.30;24.23;;;-1.90;99.90;;;;;;5033711;28;20108;-82
2022/01/12 03:33:33;;;;;;;44.83;26.90;;;-1.90;99.90;;;;;;5033747;28;20022;-81
2022/01/12 03:38:42;;;;;;;43.80;24.00;;;-2.00;99.90;;;;;;5033639;28;20040;-82
2022/01/12 03:41:08;;;;;;;39.60;22.50;;;-1.90;99.90;;;;;;5033390;28;20059;-81
2022/01/12 03:43:33;;;;;;;39.13;20.97;;;-1.70;99.90;;;;;;5033470;28;20394;-81
2022/01/12 03:45:59;;;;;;;44.57;22.70;;;-1.80;99.90;;;;;;5033604;28;20378;-81
2022/01/12 03:48:24;;;;;;;39.13;23.40;;;-1.90;99.90;;;;;;5033419;28;20045;-82
2022/01/12 03:50:50;;;;;;;35.70;20.87;;;-1.90;99.90;;;;;;5033452;28;20140;-81
2022/01/12 03:53:16;;;;;;;38.90;22.60;;;-1.90;99.90;;;;;;5033153;28;20064;-81
2022/01/12 03:55:43;;;;;;;41.10;22.50;;;-1.90;99.90;;;;;;5031907;28;20033;-81
2022/01/12 03:58:11;;;;;;;41.17;23.50;;;-1.90;99.90;;;;;;5033199;28;20497;-81
2022/01/12 04:00:37;;;;;;;42.97;24.53;;;-1.90;99.90;;;;;;5033247;28;20036;-81
2022/01/12 04:03:05;;;;;;;42.50;24.87;;;-2.00;99.90;;;;;;5033021;28;20163;-82
2022/01/12 04:08:19;;;;;;;43.70;22.87;;;-2.00;99.90;;;;;;5033215;28;20044;-82
2022/01/12 04:10:45;;;;;;;38.00;23.23;;;-1.90;99.90;;;;;;5032841;28;20127;-82
2022/01/12 04:13:11;;;;;;;44.00;25.17;;;-1.80;99.90;;;;;;5032898;28;20021;-82
2022/01/12 04:15:37;;;;;;;41.07;22.70;;;-1.90;99.90;;;;;;5031816;28;20109;-82
2022/01/12 04:18:02;;;;;;;40.30;23.33;;;-1.80;99.90;;;;;;5023542;28;20080;-82
2022/01/12 04:20:28;;;;;;;38.67;23.00;;;-1.90;99.90;;;;;;5013067;28;20080;-82
2022/01/12 04:25:37;;;;;;;47.10;26.87;;;-2.00;99.90;;;;;;5032821;28;20687;-82
2022/01/12 04:28:03;;;;;;;42.13;23.43;;;-2.00;99.90;;;;;;5032070;28;20022;-82
2022/01/12 04:30:28;;;;;;;43.60;24.73;;;-1.70;99.90;;;;;;5032555;28;20334;-82
2022/01/12 04:32:54;;;;;;;45.37;26.13;;;-1.60;99.90;;;;;;5032617;28;20104;-82
2022/01/12 04:35:24;;;;;;;50.00;28.40;;;-1.60;99.90;;;;;;5031330;28;20519;-82
2022/01/12 04:37:50;;;;;;;50.83;30.47;;;-1.70;99.90;;;;;;5031874;28;20034;-82
2022/01/12 04:40:16;;;;;;;46.67;25.93;;;-1.80;99.90;;;;;;5032128;28;20021;-82
2022/01/12 04:42:42;;;;;;;41.27;24.03;;;-1.80;99.90;;;;;;5032293;28;20021;-82
2022/01/12 04:45:31;;;;;;;42.60;24.60;;;-1.70;99.90;;;;;;5032408;28;20104;-82
2022/01/12 04:48:07;;;;;;;42.50;25.93;;;-1.60;99.90;;;;;;5032430;28;20028;-82
2022/01/12 04:50:37;;;;;;;46.50;25.50;;;-1.70;99.90;;;;;;5032340;28;20117;-82
2022/01/12 04:53:03;;;;;;;46.30;25.60;;;-1.80;99.90;;;;;;5032462;28;20053;-82
2022/01/12 04:55:29;;;;;;;44.63;25.20;;;-1.80;99.90;;;;;;5032352;28;20025;-83
2022/01/12 04:57:55;;;;;;;41.90;24.43;;;-1.80;99.90;;;;;;5032087;28;20545;-82
2022/01/12 05:00:22;;;;;;;45.87;25.93;;;-1.70;99.90;;;;;;5032105;28;20406;-82
2022/01/12 05:13:35;;;;;;;44.65;25.80;;;-2.00;99.90;;;;;;5031923;28;20540;-80
2022/01/12 05:16:01;;;;;;;52.07;27.40;;;-2.00;99.90;;;;;;5029774;28;20395;-80
2022/01/12 05:18:28;;;;;;;53.37;30.57;;;-2.00;99.90;;;;;;5021325;28;20048;-80
2022/01/12 05:20:54;;;;;;;49.03;28.00;;;-2.00;99.90;;;;;;5027893;28;20068;-80
2022/01/12 05:23:19;;;;;;;50.10;26.77;;;-2.00;99.90;;;;;;5032909;28;20080;-75
2022/01/12 05:25:46;;;;;;;83.87;48.30;;;-2.00;99.90;;;;;;5034598;28;20071;-74
2022/01/12 05:28:12;;;;;;;70.13;41.77;;;-2.10;99.90;;;;;;5034763;28;20022;-74
2022/01/12 05:30:38;;;;;;;78.90;53.57;;;-2.10;99.90;;;;;;5035076;28;20029;-75
2022/01/12 05:33:04;;;;;;;51.13;29.10;;;-2.10;99.90;;;;;;5034696;28;20106;-75
2022/01/12 05:35:32;;;;;;;48.60;27.77;;;-2.10;99.90;;;;;;5034880;28;20045;-75
2022/01/12 05:38:00;;;;;;;54.27;27.30;;;-2.10;99.90;;;;;;5034135;28;20026;-74
2022/01/12 05:40:26;;;;;;;53.40;27.37;;;-2.00;99.90;;;;;;5034249;28;20108;-74
2022/01/12 05:42:53;;;;;;;86.57;43.73;;;-2.00;99.90;;;;;;5034507;28;20415;-74
2022/01/12 05:45:19;;;;;;;62.30;34.00;;;-1.80;99.90;;;;;;5034464;28;20018;-74
2022/01/12 05:50:12;;;;;;;64.93;34.47;;;-1.80;99.90;;;;;;5034113;28;20409;-74
2022/01/12 05:52:37;;;;;;;58.83;30.87;;;-2.00;99.90;;;;;;5034205;28;20455;-74
2022/01/12 05:55:05;;;;;;;58.40;31.57;;;-2.10;99.90;;;;;;5033915;28;20036;-74
2022/01/12 05:57:31;;;;;;;50.70;27.67;;;-2.10;99.90;;;;;;5033804;28;20033;-79
2022/01/12 06:00:00;;;;;;;55.43;31.00;;;-2.10;99.90;;;;;;5033881;28;20033;-79
2022/01/12 06:02:26;;;;;;;55.83;31.00;;;-2.10;99.90;;;;;;5026575;28;20049;-79
2022/01/12 06:04:52;;;;;;;62.80;31.57;;;-2.20;99.90;;;;;;5014941;28;20026;-79
2022/01/12 06:07:17;;;;;;;54.00;30.43;;;-2.20;99.90;;;;;;5014212;28;20026;-79
2022/01/12 06:09:43;;;;;;;57.30;30.73;;;-2.30;99.90;;;;;;5013805;28;20103;-79
2022/01/12 06:12:09;;;;;;;60.70;30.43;;;-2.20;99.90;;;;;;5019027;28;20042;-79
2022/01/12 06:14:35;;;;;;;56.77;29.70;;;-2.30;99.90;;;;;;5033038;28;20069;-78
2022/01/12 06:17:00;;;;;;;55.17;30.20;;;-2.30;99.90;;;;;;5033064;28;20049;-78
2022/01/12 06:19:26;;;;;;;53.03;28.80;;;-2.30;99.90;;;;;;5033806;28;20374;-79
2022/01/12 06:21:52;;;;;;;55.50;30.83;;;-2.30;99.90;;;;;;5033491;28;20443;-78
2022/01/12 06:24:18;;;;;;;55.50;30.13;;;-2.30;99.90;;;;;;5033479;28;20045;-79
2022/01/12 06:26:46;;;;;;;53.30;29.20;;;-2.20;99.90;;;;;;5032116;28;20033;-79
2022/01/12 06:29:25;;;;;;;53.50;29.67;;;-2.20;99.90;;;;;;5033582;28;20032;-78
2022/01/12 06:31:55;;;;;;;51.73;27.37;;;-2.20;99.90;;;;;;5032289;28;20394;-78
2022/01/12 06:34:21;;;;;;;54.63;29.33;;;-2.10;99.90;;;;;;5033462;28;20029;-79
2022/01/12 06:36:47;;;;;;;52.00;28.47;;;-2.10;99.90;;;;;;5033207;28;20033;-79
2022/01/12 06:39:17;;;;;;;55.13;28.73;;;-2.10;99.90;;;;;;5033035;28;20025;-79
2022/01/12 06:41:43;;;;;;;61.57;31.37;;;-2.10;99.90;;;;;;5032965;28;20025;-78
2022/01/12 06:44:14;;;;;;;52.17;29.23;;;-2.20;99.90;;;;;;5032986;28;20462;-79
2022/01/12 06:46:40;;;;;;;58.83;30.30;;;-2.20;99.90;;;;;;5033119;28;20033;-79
2022/01/12 06:49:05;;;;;;;56.77;30.80;;;-2.10;99.90;;;;;;5032179;28;20104;-80
2022/01/12 06:51:31;;;;;;;57.43;29.57;;;-2.20;99.90;;;;;;5022180;28;20109;-67
2022/01/12 06:53:57;;;;;;;54.83;28.20;;;-2.20;99.90;;;;;;5032193;28;20034;-82
2022/01/12 06:56:22;;;;;;;53.97;28.97;;;-2.10;99.90;;;;;;5031131;28;20037;-77
2022/01/12 06:58:48;;;;;;;53.37;28.23;;;-2.10;99.90;;;;;;5039150;28;20438;-79
2022/01/12 07:01:14;;;;;;;52.53;30.30;;;-2.10;99.90;;;;;;5030548;28;20037;-79
2022/01/12 07:03:40;;;;;;;55.30;29.87;;;-2.10;99.90;;;;;;5031920;28;20116;-79
2022/01/12 07:06:05;;;;;;;51.13;28.13;;;-2.10;99.90;;;;;;5031184;28;20495;-79
2022/01/12 07:08:34;;;;;;;47.90;26.97;;;-1.80;99.90;;;;;;5030663;28;20033;-84
2022/01/12 07:11:00;;;;;;;47.93;26.63;;;-1.90;99.90;;;;;;5029534;28;20405;-84
2022/01/12 07:13:25;;;;;;;52.37;27.17;;;-1.80;99.90;;;;;;5029749;28;20045;-71
2022/01/12 07:15:51;;;;;;;47.47;26.73;;;-1.90;99.90;;;;;;5025476;28;20719;-81
2022/01/12 07:18:19;;;;;;;56.80;29.63;;;-1.90;99.90;;;;;;5023126;28;20121;-82
2022/01/12 07:20:44;;;;;;;52.83;28.93;;;-2.00;99.90;;;;;;5027252;28;20724;-81
2022/01/12 07:23:11;;;;;;;53.57;29.77;;;-2.00;99.90;;;;;;5030498;28;20192;-81
2022/01/12 07:25:37;;;;;;;47.00;26.70;;;-2.00;99.90;;;;;;5030667;28;20045;-81
2022/01/12 07:28:02;;;;;;;52.57;28.97;;;-1.90;99.90;;;;;;5030607;28;20048;-80
2022/01/12 07:30:28;;;;;;;48.90;26.57;;;-1.80;99.90;;;;;;5030781;28;20048;-81
2022/01/12 07:32:53;;;;;;;49.00;26.20;;;-1.60;99.90;;;;;;5030864;28;20033;-81
2022/01/12 07:35:19;;;;;;;46.27;24.83;;;-1.50;99.90;;;;;;5029370;28;20036;-80
2022/01/12 07:37:45;;;;;;;43.63;24.50;;;-1.40;99.90;;;;;;5030956;28;20026;-77
2022/01/12 07:40:11;;;;;;;45.73;24.50;;;-1.40;99.90;;;;;;5032248;28;20033;-77
2022/01/12 07:42:37;;;;;;;45.83;23.10;;;-1.30;99.90;;;;;;5032356;28;20109;-77
2022/01/12 07:45:03;;;;;;;43.70;24.97;;;-1.50;99.90;;;;;;5032308;28;20109;-78
2022/01/12 07:47:30;;;;;;;46.97;25.23;;;-1.60;99.90;;;;;;5012746;28;20128;-78
2022/01/12 07:49:57;;;;;;;46.43;25.57;;;-1.60;99.90;;;;;;5022400;28;20048;-76
2022/01/12 07:52:23;;;;;;;41.47;24.50;;;-1.50;99.90;;;;;;5030689;28;20041;-77
2022/01/12 07:54:48;;;;;;;43.67;24.47;;;-1.50;99.90;;;;;;5032231;28;20055;-77
2022/01/12 07:57:16;;;;;;;42.17;23.73;;;-1.60;99.90;;;;;;5030964;28;20112;-77
2022/01/12 07:59:42;;;;;;;43.77;24.87;;;-1.50;99.90;;;;;;5030455;28;20056;-79
2022/01/12 08:02:08;;;;;;;43.87;24.80;;;-1.50;99.90;;;;;;5032868;28;20029;-77
2022/01/12 08:04:34;;;;;;;41.07;22.23;;;-1.50;99.90;;;;;;5033946;28;20324;-77
2022/01/12 08:07:00;;;;;;;41.47;22.97;;;-1.50;99.90;;;;;;5031904;28;20040;-82
2022/01/12 08:09:25;;;;;;;42.17;24.27;;;-1.50;99.90;;;;;;5034717;28;20378;-77
2022/01/12 08:11:51;;;;;;;41.10;23.33;;;-1.50;99.90;;;;;;5034281;28;20037;-77
2022/01/12 08:14:17;;;;;;;46.27;23.87;;;-1.40;99.90;;;;;;5035404;28;20033;-78
2022/01/12 08:16:42;;;;;;;42.17;23.97;;;-1.40;99.90;;;;;;5033921;28;20028;-78
2022/01/12 08:19:08;;;;;;;44.70;24.17;;;-1.60;99.90;;;;;;5035391;28;20032;-78
2022/01/12 08:21:34;;;;;;;48.07;26.17;;;-1.60;99.90;;;;;;5028394;28;20026;-78
2022/01/12 08:24:00;;;;;;;44.23;25.40;;;-1.70;99.90;;;;;;5018250;28;20387;-78
2022/01/12 08:26:25;;;;;;;44.87;24.33;;;-1.50;99.90;;;;;;5035213;28;20087;-78
2022/01/12 08:28:51;;;;;;;46.13;26.43;;;-1.40;99.90;;;;;;5035156;28;20018;-78
2022/01/12 08:31:17;;;;;;;46.43;25.77;;;-1.50;99.90;;;;;;5035268;28;20045;-78
2022/01/12 08:33:44;;;;;;;49.70;26.93;;;-1.50;99.90;;;;;;5034462;28;20029;-78
2022/01/12 08:36:11;;;;;;;51.97;27.00;;;-1.50;99.90;;;;;;5019743;28;20029;-78
2022/01/12 08:38:36;;;;;;;46.63;26.17;;;-1.50;99.90;;;;;;5023016;28;20410;-78
2022/01/12 08:41:02;;;;;;;50.17;27.77;;;-1.40;99.90;;;;;;5029822;28;20037;-78
2022/01/12 08:43:28;;;;;;;49.13;27.37;;;-1.50;99.90;;;;;;5027799;28;20026;-78
2022/01/12 08:45:54;;;;;;;54.10;29.97;;;-1.50;99.90;;;;;;5024850;28;20029;-77
2022/01/12 08:48:21;;;;;;;51.57;28.17;;;-1.50;99.90;;;;;;5026350;28;20045;-77
2022/01/12 08:50:46;;;;;;;46.10;27.20;;;-1.50;99.90;;;;;;5033156;28;20022;-77
2022/01/12 08:53:12;;;;;;;48.13;27.43;;;-1.30;99.90;;;;;;5030406;28;20060;-77
2022/01/12 08:55:38;;;;;;;50.40;26.73;;;-1.30;99.90;;;;;;5021969;28;20248;-77
2022/01/12 08:58:03;;;;;;;51.57;28.70;;;-1.20;99.90;;;;;;5019435;28;20026;-78
2022/01/12 09:00:29;;;;;;;48.97;26.77;;;-1.20;99.90;;;;;;5028956;28;20140;-81
2022/01/12 09:02:55;;;;;;;51.47;27.97;;;-1.20;99.90;;;;;;5027108;28;20026;-81
2022/01/12 09:05:20;;;;;;;49.73;27.33;;;-1.20;99.90;;;;;;5025850;28;20059;-81
2022/01/12 09:07:46;;;;;;;54.13;28.30;;;-1.30;99.90;;;;;;5026912;28;20430;-81
2022/01/12 09:10:12;;;;;;;51.27;29.53;;;-1.40;99.90;;;;;;5025842;28;20071;-81
2022/01/12 09:12:38;;;;;;;51.77;29.10;;;-1.40;99.90;;;;;;5025950;28;20398;-81
2022/01/12 09:15:05;;;;;;;49.43;27.43;;;-1.40;99.90;;;;;;5018837;28;20037;-81
2022/01/12 09:17:31;;;;;;;50.53;27.67;;;-1.30;99.90;;;;;;5022726;28;20061;-81
2022/01/12 09:19:56;;;;;;;49.97;27.30;;;-1.30;99.90;;;;;;5024191;28;20174;-81
2022/01/12 09:22:22;;;;;;;51.20;28.17;;;-1.30;99.90;;;;;;5026345;28;20033;-80
2022/01/12 09:24:49;;;;;;;50.53;27.63;;;-1.30;99.90;;;;;;5018344;28;20053;-80
2022/01/12 09:27:16;;;;;;;52.53;29.17;;;-1.30;99.90;;;;;;5022227;28;20060;-81
2022/01/12 09:29:43;;;;;;;47.10;27.40;;;-1.30;99.90;;;;;;5021855;28;20354;-75
2022/01/12 09:32:08;;;;;;;49.37;28.97;;;-1.30;99.90;;;;;;5034635;28;20068;-75
2022/01/12 09:34:34;;;;;;;43.77;25.27;;;-1.20;99.90;;;;;;5034667;28;20064;-75
2022/01/12 09:37:00;;;;;;;44.00;25.20;;;-1.20;99.90;;;;;;5026414;28;20025;-75
2022/01/12 09:39:26;;;;;;;43.27;23.97;;;-1.20;99.90;;;;;;5034589;28;20029;-76
2022/01/12 09:41:52;;;;;;;41.43;24.40;;;-1.20;99.90;;;;;;5034019;28;20026;-76
2022/01/12 09:44:18;;;;;;;37.97;24.07;;;-1.10;99.90;;;;;;5034084;28;20018;-76
2022/01/12 09:49:32;;;;;;;36.30;23.00;;;-1.00;99.90;;;;;;5034434;28;20032;-76
2022/01/12 09:52:00;;;;;;;39.03;23.80;;;-1.00;99.90;;;;;;5029289;28;20118;-81
2022/01/12 09:54:27;;;;;;;34.80;21.90;;;-1.00;99.90;;;;;;5021374;28;20172;-81
2022/01/12 09:56:53;;;;;;;37.37;24.13;;;-1.00;99.90;;;;;;5022734;28;20061;-81
2022/01/12 09:59:21;;;;;;;36.70;22.50;;;-1.00;99.90;;;;;;5026458;28;20457;-81
2022/01/12 10:01:48;;;;;;;35.37;23.00;;;-0.90;99.90;;;;;;5025526;28;20047;-81
2022/01/12 10:04:19;;;;;;;36.70;22.00;;;-0.90;99.90;;;;;;5022545;28;20416;-81
2022/01/12 10:06:46;;;;;;;33.57;21.97;;;-0.80;99.90;;;;;;5025889;28;20158;-82
2022/01/12 10:09:13;;;;;;;36.23;23.03;;;-0.80;99.90;;;;;;5026537;28;20035;-82
2022/01/12 10:12:05;;;;;;;33.57;21.53;;;-0.80;99.90;;;;;;5032710;28;20017;-79
2022/01/12 10:14:48;;;;;;;30.70;20.60;;;-0.70;99.90;;;;;;5011712;28;20053;-76
2022/01/12 10:17:14;;;;;;;31.97;20.33;;;-0.50;99.90;;;;;;5014220;28;20025;-76
2022/01/12 10:19:40;;;;;;;32.83;20.30;;;-0.50;99.90;;;;;;5013646;28;20466;-78
2022/01/12 10:22:08;;;;;;;35.23;22.20;;;-0.40;99.90;;;;;;5013632;28;20061;-76
2022/01/12 10:24:39;;;;;;;30.37;19.87;;;-0.40;99.90;;;;;;5012813;28;20049;-76
2022/01/12 10:27:18;;;;;;;32.87;21.30;;;-0.20;99.90;;;;;;5013627;28;20550;-77
2022/01/12 10:29:45;;;;;;;29.17;20.27;;;-0.30;99.90;;;;;;5020320;28;20083;-76
2022/01/12 10:32:16;;;;;;;29.90;19.50;;;-0.30;99.90;;;;;;5033380;28;20064;-76
2022/01/12 10:34:44;;;;;;;29.27;18.17;;;-0.30;99.90;;;;;;5033442;28;20160;-78
2022/01/12 10:37:16;;;;;;;28.47;19.20;;;-0.30;99.90;;;;;;5031905;28;20398;-76
2022/01/12 10:39:45;;;;;;;26.70;17.93;;;-0.30;99.90;;;;;;5033334;28;20035;-76
2022/01/12 10:42:13;;;;;;;34.53;20.63;;;-0.30;99.90;;;;;;5033210;28;20025;-77
2022/01/12 10:44:45;;;;;;;37.40;21.33;;;-0.30;99.90;;;;;;5033099;28;20033;-74
2022/01/12 10:47:29;;;;;;;33.90;22.27;;;-0.20;99.90;;;;;;5033255;28;20029;-75
2022/01/12 10:49:55;;;;;;;37.60;23.17;;;-0.20;99.90;;;;;;5033093;28;20026;-75
2022/01/12 10:52:22;;;;;;;34.77;22.13;;;-0.10;99.90;;;;;;5031644;28;20030;-76
2022/01/12 10:54:50;;;;;;;35.77;21.83;;;-0.20;99.90;;;;;;5033017;28;20026;-75
2022/01/12 10:57:22;;;;;;;37.03;22.57;;;-0.20;99.90;;;;;;5033445;28;20034;-76
2022/01/12 11:00:05;;;;;;;33.03;21.43;;;-0.20;99.90;;;;;;5032903;28;20479;-76
2022/01/12 11:02:32;;;;;;;32.47;20.97;;;-0.30;99.90;;;;;;5033051;28;20371;-77
2022/01/12 11:04:58;;;;;;;32.93;20.83;;;-0.30;99.90;;;;;;5032914;28;20037;-75
2022/01/12 11:07:25;;;;;;;32.87;21.40;;;-0.30;99.90;;;;;;5033363;28;20025;-75
2022/01/12 11:09:56;;;;;;;40.63;24.60;;;0.00;99.90;;;;;;5030090;28;20103;-79
2022/01/12 11:12:22;;;;;;;48.10;28.93;;;-0.10;99.90;;;;;;5027051;28;20025;-79
2022/01/12 11:14:48;;;;;;;43.90;27.73;;;-0.10;99.90;;;;;;5030798;28;20026;-79
2022/01/12 11:17:14;;;;;;;33.87;20.90;;;0.10;99.90;;;;;;5032694;28;20017;-76
2022/01/12 11:19:44;;;;;;;37.03;22.47;;;0.30;99.90;;;;;;5031387;28;20037;-76
2022/01/12 11:22:24;;;;;;;35.27;22.10;;;0.40;99.90;;;;;;5032950;28;20033;-75
2022/01/12 11:24:52;;;;;;;38.50;24.47;;;0.40;99.90;;;;;;5027766;28;20117;-79
2022/01/12 11:27:22;;;;;;;34.27;23.13;;;0.30;99.90;;;;;;5027340;28;20017;-79
2022/01/12 11:29:48;;;;;;;35.60;21.90;;;0.30;99.90;;;;;;5027052;28;20125;-81
2022/01/12 11:32:22;;;;;;;40.00;23.20;;;0.70;99.90;;;;;;5026438;28;20104;-81
2022/01/12 11:35:08;;;;;;;39.17;22.57;;;0.80;99.90;;;;;;5012920;28;20508;-80
2022/01/12 11:37:33;;;;;;;39.37;22.97;;;0.90;99.90;;;;;;5009963;28;20807;-80
2022/01/12 11:40:08;;;;;;;37.07;22.33;;;0.90;99.90;;;;;;5022614;28;20048;-80
2022/01/12 11:42:36;;;;;;;39.38;23.58;;;0.90;99.90;;;;;;5032087;28;20103;-79
2022/01/12 11:45:02;;;;;;;37.90;23.20;;;0.80;99.90;;;;;;5033080;28;20018;-79
2022/01/12 11:47:31;;;;;;;41.70;24.77;;;0.70;99.90;;;;;;5030000;28;20017;-80
2022/01/12 11:49:57;;;;;;;42.73;23.53;;;0.90;99.90;;;;;;5028012;28;20040;-82
2022/01/12 11:52:30;;;;;;;37.73;23.70;;;0.70;99.90;;;;;;5032376;28;20097;-81
2022/01/12 11:55:16;;;;;;;38.50;23.43;;;0.60;99.90;;;;;;5032585;28;20037;-81
2022/01/12 11:57:52;;;;;;;42.23;24.60;;;0.50;99.90;;;;;;5031773;28;20032;-81
2022/01/12 12:00:27;;;;;;;37.77;22.83;;;0.50;99.90;;;;;;5032781;28;20041;-79
2022/01/12 12:02:52;;;;;;;38.58;22.65;;;0.70;99.90;;;;;;5031425;28;20481;-79
2022/01/12 12:05:21;;;;;;;42.40;24.50;;;0.40;99.90;;;;;;5032977;28;20242;-79
2022/01/12 12:08:01;;;;;;;41.17;24.80;;;0.40;99.90;;;;;;5033050;28;20441;-80
2022/01/12 12:10:29;;;;;;;42.13;24.23;;;0.50;99.90;;;;;;5032605;28;20160;-80
2022/01/12 12:12:56;;;;;;;40.70;25.33;;;0.60;99.90;;;;;;5030920;28;20030;-80
2022/01/12 12:15:23;;;;;;;40.60;24.23;;;0.80;99.90;;;;;;5032445;28;20079;-76
2022/01/12 12:17:50;;;;;;;39.90;23.60;;;0.70;99.90;;;;;;5031218;28;20072;-81
2022/01/12 12:20:20;;;;;;;40.47;23.13;;;0.80;99.90;;;;;;5024715;28;20175;-82
2022/01/12 12:22:48;;;;;;;47.57;26.47;;;0.80;99.90;;;;;;5028754;28;20040;-82
2022/01/12 12:25:18;;;;;;;46.53;26.00;;;0.70;99.90;;;;;;5031553;28;20512;-78
2022/01/12 12:27:50;;;;;;;47.43;25.73;;;0.60;99.90;;;;;;5035537;28;20372;-78
2022/01/12 12:30:17;;;;;;;47.63;25.43;;;0.60;99.90;;;;;;5031983;28;20652;-82
2022/01/12 12:32:45;;;;;;;45.53;25.90;;;0.60;99.90;;;;;;5029914;28;20027;-82
2022/01/12 12:35:20;;;;;;;45.67;25.80;;;0.50;99.90;;;;;;5029647;28;20061;-82
2022/01/12 12:37:58;;;;;;;44.75;24.83;;;0.30;99.90;;;;;;5029286;28;20033;-81
2022/01/12 12:40:28;;;;;;;41.33;25.20;;;0.40;99.90;;;;;;5029603;28;20088;-81
2022/01/12 12:43:14;;;;;;;45.20;25.77;;;0.60;99.90;;;;;;5027419;28;20793;-81
2022/01/12 12:45:45;;;;;;;45.30;25.93;;;0.50;99.90;;;;;;5027537;28;20819;-81
2022/01/12 12:48:14;;;;;;;43.67;25.10;;;0.40;99.90;;;;;;5033834;28;20022;-78
2022/01/12 12:50:40;;;;;;;52.93;28.67;;;0.30;99.90;;;;;;5034901;28;20048;-78
2022/01/12 12:53:06;;;;;;;47.93;26.87;;;0.20;99.90;;;;;;5034946;28;20096;-78
2022/01/12 12:55:41;;;;;;;42.57;24.90;;;0.30;99.90;;;;;;5034897;28;20037;-77
2022/01/12 12:58:08;;;;;;;42.08;24.20;;;0.30;99.90;;;;;;5034922;28;20029;-79
2022/01/12 13:00:35;;;;;;;45.80;27.10;;;0.30;99.90;;;;;;5029169;28;20136;-78
2022/01/12 13:03:03;;;;;;;44.33;24.30;;;0.30;99.90;;;;;;5028402;28;20098;-79
2022/01/12 13:05:41;;;;;;;46.97;25.27;;;0.10;99.90;;;;;;5029327;28;20025;-78
2022/01/12 13:08:07;;;;;;;43.70;25.57;;;-0.10;99.90;;;;;;5028645;28;20022;-79
2022/01/12 13:10:34;;;;;;;46.07;25.83;;;0.10;99.90;;;;;;5028577;28;20076;-79
2022/01/12 13:13:03;;;;;;;43.63;25.87;;;0.00;99.90;;;;;;5028396;28;20037;-79
2022/01/12 13:15:33;;;;;;;43.37;25.33;;;0.00;99.90;;;;;;5027782;28;20121;-81
2022/01/12 13:18:05;;;;;;;86.47;47.37;;;0.20;99.90;;;;;;5016275;28;20033;-81
2022/01/12 13:23:17;;;;;;;54.07;32.70;;;0.20;99.90;;;;;;5032545;28;20047;-82
2022/01/12 13:25:43;;;;;;;59.83;35.53;;;-0.20;99.90;;;;;;5028296;28;20128;-82
2022/01/12 13:28:09;;;;;;;53.53;30.53;;;-0.20;99.90;;;;;;5025539;28;20474;-81
2022/01/12 13:30:47;;;;;;;94.53;56.20;;;-0.30;99.90;;;;;;5025895;28;20033;-81
2022/01/12 13:33:13;;;;;;;53.73;32.43;;;-0.30;99.90;;;;;;5028032;28;20025;-81
2022/01/12 13:35:39;;;;;;;48.50;28.80;;;-0.40;99.90;;;;;;5028276;28;20030;-81
2022/01/12 13:38:06;;;;;;;48.40;27.73;;;-0.60;99.90;;;;;;5028316;28;20032;-81
2022/01/12 13:40:37;;;;;;;50.57;27.50;;;-0.60;99.90;;;;;;5015739;28;20037;-81
2022/01/12 13:43:03;;;;;;;49.23;27.47;;;-0.60;99.90;;;;;;5026174;28;20026;-81
2022/01/12 13:45:38;;;;;;;50.60;28.37;;;-0.60;99.90;;;;;;5026594;28;20386;-82
2022/01/12 13:48:12;;;;;;;49.35;27.58;;;-0.50;99.90;;;;;;5026755;28;20435;-82
2022/01/12 13:50:39;;;;;;;49.33;26.53;;;-0.50;99.90;;;;;;5025716;28;20045;-82
2022/01/12 13:53:06;;;;;;;50.20;28.40;;;-0.50;99.90;;;;;;5025954;28;20118;-82
2022/01/12 13:55:33;;;;;;;41.27;24.23;;;-0.40;99.90;;;;;;5025035;28;20056;-82